sensor_id;sensor_type;location;lat;lon;timestamp;P1;durP1;ratioP1;P2;durP2;ratioP2
51179;SDS011;37243;49.814;8.652;2022-07-24T00:02:22;4.38;;;4.18;;
51179;SDS011;37243;49.814;8.652;2022-07-24T00:04:53;5.18;;;4.55;;
51179;SDS011;37243;49.814;8.652;2022-07-24T00:07:23;4.20;;;4.00;;
51179;SDS011;37243;49.814;8.652;2022-07-24T00:09:51;4.70;;;4.30;;
51179;SDS011;37243;49.814;8.652;2022-07-24T00:12:20;4.53;;;4.22;;
51179;SDS011;37243;49.814;8.652;2022-07-24T00:14:49;4.25;;;4.00;;
51179;SDS011;37243;49.814;8.652;2022-07-24T00:17:18;4.25;;;4.00;;
51179;SDS011;37243;49.814;8.652;2022-07-24T00:19:46;4.80;;;4.40;;
51179;SDS011;37243;49.814;8.652;2022-07-24T00:22:17;4.55;;;4.18;;
51179;SDS011;37243;49.814;8.652;2022-07-24T00:24:45;4.75;;;4.40;;
51179;SDS011;37243;49.814;8.652;2022-07-24T00:27:14;4.35;;;4.07;;
51179;SDS011;37243;49.814;8.652;2022-07-24T00:29:42;4.40;;;4.10;;
51179;SDS011;37243;49.814;8.652;2022-07-24T00:32:10;4.53;;;4.22;;
51179;SDS011;37243;49.814;8.652;2022-07-24T00:34:39;3.97;;;3.78;;
51179;SDS011;37243;49.814;8.652;2022-07-24T00:37:07;4.20;;;4.00;;
51179;SDS011;37243;49.814;8.652;2022-07-24T00:39:38;4.57;;;4.30;;
51179;SDS011;37243;49.814;8.652;2022-07-24T00:42:06;4.03;;;3.83;;
51179;SDS011;37243;49.814;8.652;2022-07-24T00:44:35;4.47;;;4.18;;
51179;SDS011;37243;49.814;8.652;2022-07-24T00:47:03;4.18;;;3.88;;
51179;SDS011;37243;49.814;8.652;2022-07-24T00:49:32;4.43;;;4.13;;
51179;SDS011;37243;49.814;8.652;2022-07-24T00:52:00;4.07;;;3.88;;
51179;SDS011;37243;49.814;8.652;2022-07-24T00:54:28;4.18;;;3.90;;
51179;SDS011;37243;49.814;8.652;2022-07-24T00:56:59;4.22;;;3.92;;
51179;SDS011;37243;49.814;8.652;2022-07-24T00:59:28;4.45;;;4.15;;
51179;SDS011;37243;49.814;8.652;2022-07-24T01:01:56;4.30;;;3.97;;
51179;SDS011;37243;49.814;8.652;2022-07-24T01:04:24;4.45;;;4.05;;
51179;SDS011;37243;49.814;8.652;2022-07-24T01:06:53;4.47;;;4.13;;
51179;SDS011;37243;49.814;8.652;2022-07-24T01:09:21;4.57;;;4.13;;
51179;SDS011;37243;49.814;8.652;2022-07-24T01:11:50;4.20;;;3.80;;
51179;SDS011;37243;49.814;8.652;2022-07-24T01:14:22;4.22;;;3.97;;
51179;SDS011;37243;49.814;8.652;2022-07-24T01:16:50;4.40;;;4.10;;
51179;SDS011;37243;49.814;8.652;2022-07-24T01:19:19;4.05;;;3.85;;
51179;SDS011;37243;49.814;8.652;2022-07-24T01:21:50;3.95;;;3.65;;
51179;SDS011;37243;49.814;8.652;2022-07-24T01:24:20;4.25;;;3.95;;
51179;SDS011;37243;49.814;8.652;2022-07-24T01:26:49;4.20;;;3.95;;
51179;SDS011;37243;49.814;8.652;2022-07-24T01:29:18;3.78;;;3.53;;
51179;SDS011;37243;49.814;8.652;2022-07-24T01:31:46;4.30;;;4.10;;
51179;SDS011;37243;49.814;8.652;2022-07-24T01:34:15;3.90;;;3.70;;
51179;SDS011;37243;49.814;8.652;2022-07-24T01:36:43;4.50;;;4.13;;
51179;SDS011;37243;49.814;8.652;2022-07-24T01:39:14;4.05;;;3.85;;
51179;SDS011;37243;49.814;8.652;2022-07-24T01:41:42;4.07;;;3.88;;
51179;SDS011;37243;49.814;8.652;2022-07-24T01:44:11;4.25;;;3.95;;
51179;SDS011;37243;49.814;8.652;2022-07-24T01:46:39;4.20;;;3.90;;
51179;SDS011;37243;49.814;8.652;2022-07-24T01:49:08;3.97;;;3.78;;
51179;SDS011;37243;49.814;8.652;2022-07-24T01:51:36;4.18;;;3.97;;
51179;SDS011;37243;49.814;8.652;2022-07-24T01:54:04;4.13;;;3.90;;
51179;SDS011;37243;49.814;8.652;2022-07-24T01:56:35;4.13;;;3.83;;
51179;SDS011;37243;49.814;8.652;2022-07-24T01:59:04;4.05;;;3.85;;
51179;SDS011;37243;49.814;8.652;2022-07-24T02:01:32;3.80;;;3.50;;
51179;SDS011;37243;49.814;8.652;2022-07-24T02:04:01;3.70;;;3.50;;
51179;SDS011;37243;49.814;8.652;2022-07-24T02:06:29;3.85;;;3.65;;
51179;SDS011;37243;49.814;8.652;2022-07-24T02:08:57;3.83;;;3.63;;
51179;SDS011;37243;49.814;8.652;2022-07-24T02:11:26;3.88;;;3.67;;
51179;SDS011;37243;49.814;8.652;2022-07-24T02:13:57;4.03;;;3.83;;
51179;SDS011;37243;49.814;8.652;2022-07-24T02:16:25;3.88;;;3.67;;
51179;SDS011;37243;49.814;8.652;2022-07-24T02:18:54;4.45;;;4.15;;
51179;SDS011;37243;49.814;8.652;2022-07-24T02:21:23;4.13;;;3.80;;
51179;SDS011;37243;49.814;8.652;2022-07-24T02:23:51;3.72;;;3.53;;
51179;SDS011;37243;49.814;8.652;2022-07-24T02:26:19;4.13;;;3.90;;
51179;SDS011;37243;49.814;8.652;2022-07-24T02:28:48;4.53;;;4.15;;
51179;SDS011;37243;49.814;8.652;2022-07-24T02:31:19;4.18;;;3.97;;
51179;SDS011;37243;49.814;8.652;2022-07-24T02:33:47;3.55;;;3.35;;
51179;SDS011;37243;49.814;8.652;2022-07-24T02:36:15;4.07;;;3.75;;
51179;SDS011;37243;49.814;8.652;2022-07-24T02:38:43;4.40;;;4.00;;
51179;SDS011;37243;49.814;8.652;2022-07-24T02:41:12;3.78;;;3.58;;
51179;SDS011;37243;49.814;8.652;2022-07-24T02:43:40;4.43;;;4.20;;
51179;SDS011;37243;49.814;8.652;2022-07-24T02:46:08;3.90;;;3.70;;
51179;SDS011;37243;49.814;8.652;2022-07-24T02:48:39;3.60;;;3.40;;
51179;SDS011;37243;49.814;8.652;2022-07-24T02:51:08;4.22;;;3.92;;
51179;SDS011;37243;49.814;8.652;2022-07-24T02:53:36;3.72;;;3.55;;
51179;SDS011;37243;49.814;8.652;2022-07-24T02:56:05;3.97;;;3.78;;
51179;SDS011;37243;49.814;8.652;2022-07-24T02:58:34;4.20;;;4.00;;
51179;SDS011;37243;49.814;8.652;2022-07-24T03:01:03;4.00;;;3.80;;
51179;SDS011;37243;49.814;8.652;2022-07-24T03:03:31;4.10;;;3.90;;
51179;SDS011;37243;49.814;8.652;2022-07-24T03:06:02;4.22;;;3.92;;
51179;SDS011;37243;49.814;8.652;2022-07-24T03:08:31;3.95;;;3.75;;
51179;SDS011;37243;49.814;8.652;2022-07-24T03:10:59;3.78;;;3.45;;
51179;SDS011;37243;49.814;8.652;2022-07-24T03:13:28;4.20;;;3.90;;
51179;SDS011;37243;49.814;8.652;2022-07-24T03:15:56;3.88;;;3.67;;
51179;SDS011;37243;49.814;8.652;2022-07-24T03:18:24;3.95;;;3.75;;
51179;SDS011;37243;49.814;8.652;2022-07-24T03:20:53;3.95;;;3.72;;
51179;SDS011;37243;49.814;8.652;2022-07-24T03:23:24;4.50;;;4.20;;
51179;SDS011;37243;49.814;8.652;2022-07-24T03:25:52;3.70;;;3.50;;
51179;SDS011;37243;49.814;8.652;2022-07-24T03:28:22;4.07;;;3.88;;
51179;SDS011;37243;49.814;8.652;2022-07-24T03:30:51;4.25;;;4.05;;
51179;SDS011;37243;49.814;8.652;2022-07-24T03:33:19;3.80;;;3.60;;
51179;SDS011;37243;49.814;8.652;2022-07-24T03:35:47;4.30;;;4.00;;
51179;SDS011;37243;49.814;8.652;2022-07-24T03:38:15;3.83;;;3.60;;
51179;SDS011;37243;49.814;8.652;2022-07-24T03:40:46;4.00;;;3.78;;
51179;SDS011;37243;49.814;8.652;2022-07-24T03:43:15;4.00;;;3.80;;
51179;SDS011;37243;49.814;8.652;2022-07-24T03:45:43;4.10;;;3.80;;
51179;SDS011;37243;49.814;8.652;2022-07-24T03:48:12;4.22;;;3.90;;
51179;SDS011;37243;49.814;8.652;2022-07-24T03:50:40;3.90;;;3.70;;
51179;SDS011;37243;49.814;8.652;2022-07-24T03:53:09;4.30;;;4.10;;
51179;SDS011;37243;49.814;8.652;2022-07-24T03:55:37;4.13;;;3.90;;
51179;SDS011;37243;49.814;8.652;2022-07-24T03:58:08;3.90;;;3.60;;
51179;SDS011;37243;49.814;8.652;2022-07-24T04:00:36;4.05;;;3.85;;
51179;SDS011;37243;49.814;8.652;2022-07-24T04:03:04;4.10;;;3.90;;
51179;SDS011;37243;49.814;8.652;2022-07-24T04:05:33;4.47;;;4.20;;
51179;SDS011;37243;49.814;8.652;2022-07-24T04:08:01;4.13;;;3.92;;
51179;SDS011;37243;49.814;8.652;2022-07-24T04:10:29;4.43;;;4.13;;
51179;SDS011;37243;49.814;8.652;2022-07-24T04:12:58;4.28;;;3.97;;
51179;SDS011;37243;49.814;8.652;2022-07-24T04:15:29;4.72;;;3.80;;
51179;SDS011;37243;49.814;8.652;2022-07-24T04:17:57;3.97;;;3.78;;
51179;SDS011;37243;49.814;8.652;2022-07-24T04:20:25;4.57;;;4.32;;
51179;SDS011;37243;49.814;8.652;2022-07-24T04:22:54;4.82;;;3.95;;
51179;SDS011;37243;49.814;8.652;2022-07-24T04:25:22;4.13;;;3.92;;
51179;SDS011;37243;49.814;8.652;2022-07-24T04:27:51;4.28;;;3.97;;
51179;SDS011;37243;49.814;8.652;2022-07-24T04:30:19;3.83;;;3.63;;
51179;SDS011;37243;49.814;8.652;2022-07-24T04:32:50;4.50;;;4.20;;
51179;SDS011;37243;49.814;8.652;2022-07-24T04:35:18;4.15;;;3.95;;
51179;SDS011;37243;49.814;8.652;2022-07-24T04:37:47;4.63;;;4.32;;
51179;SDS011;37243;49.814;8.652;2022-07-24T04:40:16;4.50;;;4.20;;
51179;SDS011;37243;49.814;8.652;2022-07-24T04:42:44;4.43;;;4.13;;
51179;SDS011;37243;49.814;8.652;2022-07-24T04:45:13;4.43;;;4.13;;
51179;SDS011;37243;49.814;8.652;2022-07-24T04:47:41;4.53;;;4.18;;
51179;SDS011;37243;49.814;8.652;2022-07-24T04:50:12;4.22;;;4.03;;
51179;SDS011;37243;49.814;8.652;2022-07-24T04:52:40;4.22;;;3.92;;
51179;SDS011;37243;49.814;8.652;2022-07-24T04:55:09;4.53;;;4.22;;
51179;SDS011;37243;49.814;8.652;2022-07-24T04:57:37;4.65;;;4.35;;
51179;SDS011;37243;49.814;8.652;2022-07-24T05:00:07;4.40;;;4.00;;
51179;SDS011;37243;49.814;8.652;2022-07-24T05:02:38;4.80;;;4.50;;
51179;SDS011;37243;49.814;8.652;2022-07-24T05:05:07;4.82;;;4.53;;
51179;SDS011;37243;49.814;8.652;2022-07-24T05:07:38;4.57;;;4.30;;
51179;SDS011;37243;49.814;8.652;2022-07-24T05:10:07;4.30;;;4.10;;
51179;SDS011;37243;49.814;8.652;2022-07-24T05:12:36;4.50;;;4.25;;
51179;SDS011;37243;49.814;8.652;2022-07-24T05:15:05;4.30;;;4.00;;
51179;SDS011;37243;49.814;8.652;2022-07-24T05:17:35;4.47;;;4.18;;
51179;SDS011;37243;49.814;8.652;2022-07-24T05:20:04;4.47;;;4.10;;
51179;SDS011;37243;49.814;8.652;2022-07-24T05:22:33;4.65;;;4.35;;
51179;SDS011;37243;49.814;8.652;2022-07-24T05:25:05;4.45;;;4.15;;
51179;SDS011;37243;49.814;8.652;2022-07-24T05:27:34;4.53;;;4.32;;
51179;SDS011;37243;49.814;8.652;2022-07-24T05:30:03;4.82;;;4.43;;
51179;SDS011;37243;49.814;8.652;2022-07-24T05:32:33;5.18;;;4.78;;
51179;SDS011;37243;49.814;8.652;2022-07-24T05:35:01;5.30;;;5.00;;
51179;SDS011;37243;49.814;8.652;2022-07-24T05:37:30;5.10;;;4.70;;
51179;SDS011;37243;49.814;8.652;2022-07-24T05:39:58;5.20;;;4.75;;
51179;SDS011;37243;49.814;8.652;2022-07-24T05:42:29;5.43;;;5.13;;
51179;SDS011;37243;49.814;8.652;2022-07-24T05:44:57;4.93;;;4.63;;
51179;SDS011;37243;49.814;8.652;2022-07-24T05:47:26;5.18;;;4.85;;
51179;SDS011;37243;49.814;8.652;2022-07-24T05:49:54;5.53;;;5.03;;
51179;SDS011;37243;49.814;8.652;2022-07-24T05:52:22;5.47;;;5.07;;
51179;SDS011;37243;49.814;8.652;2022-07-24T05:54:51;5.35;;;4.95;;
51179;SDS011;37243;49.814;8.652;2022-07-24T05:57:19;4.97;;;4.68;;
51179;SDS011;37243;49.814;8.652;2022-07-24T05:59:50;5.43;;;4.68;;
51179;SDS011;37243;49.814;8.652;2022-07-24T06:28:40;4.78;;;4.47;;
51179;SDS011;37243;49.814;8.652;2022-07-24T06:31:08;5.30;;;5.00;;
51179;SDS011;37243;49.814;8.652;2022-07-24T06:33:36;5.18;;;4.88;;
51179;SDS011;37243;49.814;8.652;2022-07-24T06:36:05;4.70;;;4.40;;
51179;SDS011;37243;49.814;8.652;2022-07-24T06:38:35;5.28;;;4.75;;
51179;SDS011;37243;49.814;8.652;2022-07-24T06:41:04;4.95;;;4.65;;
51179;SDS011;37243;49.814;8.652;2022-07-24T06:43:32;4.82;;;4.43;;
51179;SDS011;37243;49.814;8.652;2022-07-24T06:46:03;4.60;;;4.40;;
51179;SDS011;37243;49.814;8.652;2022-07-24T06:48:32;4.93;;;4.60;;
51179;SDS011;37243;49.814;8.652;2022-07-24T06:51:01;4.78;;;4.47;;
51179;SDS011;37243;49.814;8.652;2022-07-24T06:53:29;4.53;;;4.22;;
51179;SDS011;37243;49.814;8.652;2022-07-24T06:55:57;5.55;;;4.78;;
51179;SDS011;37243;49.814;8.652;2022-07-24T06:58:26;7.25;;;4.65;;
51179;SDS011;37243;49.814;8.652;2022-07-24T07:00:54;6.40;;;5.10;;
51179;SDS011;37243;49.814;8.652;2022-07-24T07:03:25;4.93;;;4.30;;
51179;SDS011;37243;49.814;8.652;2022-07-24T07:05:53;4.97;;;4.40;;
51179;SDS011;37243;49.814;8.652;2022-07-24T07:08:22;4.25;;;3.92;;
51179;SDS011;37243;49.814;8.652;2022-07-24T07:10:50;4.10;;;3.80;;
51179;SDS011;37243;49.814;8.652;2022-07-24T07:13:19;4.35;;;4.05;;
51179;SDS011;37243;49.814;8.652;2022-07-24T07:15:50;4.30;;;4.10;;
51179;SDS011;37243;49.814;8.652;2022-07-24T07:18:18;4.60;;;4.25;;
51179;SDS011;37243;49.814;8.652;2022-07-24T07:20:49;4.60;;;4.22;;
51179;SDS011;37243;49.814;8.652;2022-07-24T07:23:20;5.00;;;4.60;;
51179;SDS011;37243;49.814;8.652;2022-07-24T07:25:49;4.68;;;4.35;;
51179;SDS011;37243;49.814;8.652;2022-07-24T07:28:18;4.47;;;4.18;;
51179;SDS011;37243;49.814;8.652;2022-07-24T07:30:47;4.35;;;4.05;;
51179;SDS011;37243;49.814;8.652;2022-07-24T07:33:15;4.35;;;3.95;;
51179;SDS011;37243;49.814;8.652;2022-07-24T07:35:44;4.35;;;4.03;;
51179;SDS011;37243;49.814;8.652;2022-07-24T07:38:14;4.53;;;3.97;;
51179;SDS011;37243;49.814;8.652;2022-07-24T07:40:43;4.38;;;4.07;;
51179;SDS011;37243;49.814;8.652;2022-07-24T07:43:11;4.85;;;4.40;;
51179;SDS011;37243;49.814;8.652;2022-07-24T07:45:40;4.63;;;4.22;;
51179;SDS011;37243;49.814;8.652;2022-07-24T07:48:08;4.18;;;3.88;;
51179;SDS011;37243;49.814;8.652;2022-07-24T07:50:37;4.80;;;4.50;;
51179;SDS011;37243;49.814;8.652;2022-07-24T07:53:05;4.22;;;3.92;;
51179;SDS011;37243;49.814;8.652;2022-07-24T07:55:36;4.75;;;4.45;;
51179;SDS011;37243;49.814;8.652;2022-07-24T07:58:04;4.55;;;3.95;;
51179;SDS011;37243;49.814;8.652;2022-07-24T08:00:33;4.45;;;4.13;;
51179;SDS011;37243;49.814;8.652;2022-07-24T08:03:02;4.68;;;4.20;;
51179;SDS011;37243;49.814;8.652;2022-07-24T08:05:30;4.18;;;3.97;;
51179;SDS011;37243;49.814;8.652;2022-07-24T08:07:59;4.45;;;4.15;;
51179;SDS011;37243;49.814;8.652;2022-07-24T08:10:27;4.53;;;4.10;;
51179;SDS011;37243;49.814;8.652;2022-07-24T08:12:59;4.30;;;4.00;;
51179;SDS011;37243;49.814;8.652;2022-07-24T08:15:27;4.28;;;3.97;;
51179;SDS011;37243;49.814;8.652;2022-07-24T08:17:56;4.40;;;4.10;;
51179;SDS011;37243;49.814;8.652;2022-07-24T08:20:26;4.47;;;4.18;;
51179;SDS011;37243;49.814;8.652;2022-07-24T08:22:54;4.18;;;3.65;;
51179;SDS011;37243;49.814;8.652;2022-07-24T08:25:23;4.78;;;4.38;;
51179;SDS011;37243;49.814;8.652;2022-07-24T08:27:51;4.20;;;3.90;;
51179;SDS011;37243;49.814;8.652;2022-07-24T08:30:22;4.90;;;3.65;;
51179;SDS011;37243;49.814;8.652;2022-07-24T08:32:52;3.83;;;3.63;;
51179;SDS011;37243;49.814;8.652;2022-07-24T08:35:20;4.15;;;3.95;;
51179;SDS011;37243;49.814;8.652;2022-07-24T08:37:49;4.38;;;4.07;;
51179;SDS011;37243;49.814;8.652;2022-07-24T08:40:17;4.00;;;3.80;;
51179;SDS011;37243;49.814;8.652;2022-07-24T08:42:46;4.05;;;3.72;;
51179;SDS011;37243;49.814;8.652;2022-07-24T08:45:14;4.13;;;3.70;;
51179;SDS011;37243;49.814;8.652;2022-07-24T08:47:46;4.28;;;3.97;;
51179;SDS011;37243;49.814;8.652;2022-07-24T08:50:17;4.60;;;4.10;;
51179;SDS011;37243;49.814;8.652;2022-07-24T08:52:46;3.60;;;3.40;;
51179;SDS011;37243;49.814;8.652;2022-07-24T08:55:15;4.07;;;3.67;;
51179;SDS011;37243;49.814;8.652;2022-07-24T08:57:44;4.53;;;4.13;;
51179;SDS011;37243;49.814;8.652;2022-07-24T09:00:12;3.72;;;3.47;;
51179;SDS011;37243;49.814;8.652;2022-07-24T09:02:41;3.95;;;3.70;;
51179;SDS011;37243;49.814;8.652;2022-07-24T09:05:14;3.88;;;3.60;;
51179;SDS011;37243;49.814;8.652;2022-07-24T09:07:42;4.70;;;4.00;;
51179;SDS011;37243;49.814;8.652;2022-07-24T09:10:11;4.03;;;3.63;;
51179;SDS011;37243;49.814;8.652;2022-07-24T09:12:42;3.80;;;3.60;;
51179;SDS011;37243;49.814;8.652;2022-07-24T09:15:13;4.00;;;3.80;;
51179;SDS011;37243;49.814;8.652;2022-07-24T09:17:49;4.03;;;3.72;;
51179;SDS011;37243;49.814;8.652;2022-07-24T09:20:22;3.85;;;3.65;;
51179;SDS011;37243;49.814;8.652;2022-07-24T09:22:53;3.58;;;3.38;;
51179;SDS011;37243;49.814;8.652;2022-07-24T09:25:24;3.45;;;3.25;;
51179;SDS011;37243;49.814;8.652;2022-07-24T09:27:55;3.85;;;3.58;;
51179;SDS011;37243;49.814;8.652;2022-07-24T09:30:27;4.32;;;4.03;;
51179;SDS011;37243;49.814;8.652;2022-07-24T09:32:57;3.80;;;3.60;;
51179;SDS011;37243;49.814;8.652;2022-07-24T09:35:33;3.92;;;3.63;;
51179;SDS011;37243;49.814;8.652;2022-07-24T09:38:03;3.97;;;3.70;;
51179;SDS011;37243;49.814;8.652;2022-07-24T09:40:33;3.53;;;3.33;;
51179;SDS011;37243;49.814;8.652;2022-07-24T09:43:19;3.70;;;3.50;;
51179;SDS011;37243;49.814;8.652;2022-07-24T09:45:51;4.03;;;3.72;;
51179;SDS011;37243;49.814;8.652;2022-07-24T09:48:22;3.30;;;3.10;;
51179;SDS011;37243;49.814;8.652;2022-07-24T09:50:55;3.40;;;3.30;;
51179;SDS011;37243;49.814;8.652;2022-07-24T09:53:25;3.75;;;3.55;;
51179;SDS011;37243;49.814;8.652;2022-07-24T09:56:02;3.63;;;3.42;;
51179;SDS011;37243;49.814;8.652;2022-07-24T09:58:33;3.60;;;3.40;;
51179;SDS011;37243;49.814;8.652;2022-07-24T10:01:03;3.65;;;3.45;;
51179;SDS011;37243;49.814;8.652;2022-07-24T10:03:34;3.72;;;3.53;;
51179;SDS011;37243;49.814;8.652;2022-07-24T10:06:08;3.92;;;3.72;;
51179;SDS011;37243;49.814;8.652;2022-07-24T10:08:39;3.65;;;3.45;;
51179;SDS011;37243;49.814;8.652;2022-07-24T10:11:09;3.38;;;3.20;;
51179;SDS011;37243;49.814;8.652;2022-07-24T10:13:38;3.83;;;3.63;;
51179;SDS011;37243;49.814;8.652;2022-07-24T10:18:55;3.60;;;3.40;;
51179;SDS011;37243;49.814;8.652;2022-07-24T10:21:29;4.03;;;3.72;;
51179;SDS011;37243;49.814;8.652;2022-07-24T10:24:11;3.50;;;3.20;;
51179;SDS011;37243;49.814;8.652;2022-07-24T10:26:51;3.90;;;3.63;;
51179;SDS011;37243;49.814;8.652;2022-07-24T10:29:23;3.85;;;3.65;;
51179;SDS011;37243;49.814;8.652;2022-07-24T10:31:52;3.92;;;3.72;;
51179;SDS011;37243;49.814;8.652;2022-07-24T10:34:26;3.65;;;3.35;;
51179;SDS011;37243;49.814;8.652;2022-07-24T10:37:04;3.33;;;3.13;;
51179;SDS011;37243;49.814;8.652;2022-07-24T10:39:42;3.92;;;3.72;;
51179;SDS011;37243;49.814;8.652;2022-07-24T10:42:20;3.50;;;3.30;;
51179;SDS011;37243;49.814;8.652;2022-07-24T10:47:40;3.70;;;3.50;;
51179;SDS011;37243;49.814;8.652;2022-07-24T10:50:09;3.70;;;3.50;;
51179;SDS011;37243;49.814;8.652;2022-07-24T10:52:42;3.60;;;3.40;;
51179;SDS011;37243;49.814;8.652;2022-07-24T10:55:23;3.78;;;3.47;;
51179;SDS011;37243;49.814;8.652;2022-07-24T10:57:58;3.55;;;3.35;;
51179;SDS011;37243;49.814;8.652;2022-07-24T11:00:30;3.92;;;3.63;;
51179;SDS011;37243;49.814;8.652;2022-07-24T11:03:00;3.58;;;3.38;;
51179;SDS011;37243;49.814;8.652;2022-07-24T11:05:31;4.15;;;3.65;;
51179;SDS011;37243;49.814;8.652;2022-07-24T11:11:04;3.92;;;3.72;;
51179;SDS011;37243;49.814;8.652;2022-07-24T11:13:47;3.65;;;3.45;;
51179;SDS011;37243;49.814;8.652;2022-07-24T11:16:20;4.95;;;3.60;;
51179;SDS011;37243;49.814;8.652;2022-07-24T11:22:09;5.03;;;3.70;;
51179;SDS011;37243;49.814;8.652;2022-07-24T11:25:04;3.85;;;3.55;;
51179;SDS011;37243;49.814;8.652;2022-07-24T11:30:21;6.07;;;3.60;;
51179;SDS011;37243;49.814;8.652;2022-07-24T11:32:51;4.88;;;3.72;;
51179;SDS011;37243;49.814;8.652;2022-07-24T11:35:26;3.80;;;3.47;;
51179;SDS011;37243;49.814;8.652;2022-07-24T11:37:55;5.65;;;3.50;;
51179;SDS011;37243;49.814;8.652;2022-07-24T11:40:26;4.20;;;3.80;;
51179;SDS011;37243;49.814;8.652;2022-07-24T11:42:54;5.38;;;3.38;;
51179;SDS011;37243;49.814;8.652;2022-07-24T11:45:24;5.10;;;3.80;;
51179;SDS011;37243;49.814;8.652;2022-07-24T11:47:52;4.65;;;4.30;;
51179;SDS011;37243;49.814;8.652;2022-07-24T11:50:21;4.43;;;4.03;;
51179;SDS011;37243;49.814;8.652;2022-07-24T11:52:51;4.15;;;3.75;;
51179;SDS011;37243;49.814;8.652;2022-07-24T11:55:21;4.15;;;3.83;;
51179;SDS011;37243;49.814;8.652;2022-07-24T11:57:55;5.45;;;3.70;;
51179;SDS011;37243;49.814;8.652;2022-07-24T12:00:24;4.07;;;3.65;;
51179;SDS011;37243;49.814;8.652;2022-07-24T12:02:55;7.20;;;3.97;;
51179;SDS011;37243;49.814;8.652;2022-07-24T12:05:26;5.50;;;3.83;;
51179;SDS011;37243;49.814;8.652;2022-07-24T12:07:56;4.53;;;4.13;;
51179;SDS011;37243;49.814;8.652;2022-07-24T12:10:26;4.15;;;3.78;;
51179;SDS011;37243;49.814;8.652;2022-07-24T12:12:58;3.80;;;3.53;;
51179;SDS011;37243;49.814;8.652;2022-07-24T12:15:26;4.13;;;3.60;;
51179;SDS011;37243;49.814;8.652;2022-07-24T12:17:56;4.55;;;4.07;;
51179;SDS011;37243;49.814;8.652;2022-07-24T12:20:27;6.85;;;3.67;;
51179;SDS011;37243;49.814;8.652;2022-07-24T12:22:57;4.00;;;3.70;;
51179;SDS011;37243;49.814;8.652;2022-07-24T12:25:27;6.72;;;4.00;;
51179;SDS011;37243;49.814;8.652;2022-07-24T12:28:05;4.70;;;4.07;;
51179;SDS011;37243;49.814;8.652;2022-07-24T12:30:36;5.30;;;3.88;;
51179;SDS011;37243;49.814;8.652;2022-07-24T12:33:06;4.30;;;3.92;;
51179;SDS011;37243;49.814;8.652;2022-07-24T12:35:51;4.68;;;4.20;;
51179;SDS011;37243;49.814;8.652;2022-07-24T12:38:25;5.28;;;4.50;;
51179;SDS011;37243;49.814;8.652;2022-07-24T12:41:02;5.90;;;4.10;;
51179;SDS011;37243;49.814;8.652;2022-07-24T12:43:44;5.18;;;3.67;;
51179;SDS011;37243;49.814;8.652;2022-07-24T12:46:14;3.97;;;3.63;;
51179;SDS011;37243;49.814;8.652;2022-07-24T12:48:55;4.60;;;4.20;;
51179;SDS011;37243;49.814;8.652;2022-07-24T12:51:24;4.70;;;4.03;;
51179;SDS011;37243;49.814;8.652;2022-07-24T12:53:53;6.20;;;4.20;;
51179;SDS011;37243;49.814;8.652;2022-07-24T12:56:23;4.30;;;4.00;;
51179;SDS011;37243;49.814;8.652;2022-07-24T12:58:58;4.65;;;4.22;;
51179;SDS011;37243;49.814;8.652;2022-07-24T13:01:42;4.15;;;3.75;;
51179;SDS011;37243;49.814;8.652;2022-07-24T13:04:15;4.38;;;3.88;;
51179;SDS011;37243;49.814;8.652;2022-07-24T13:06:45;4.75;;;4.03;;
51179;SDS011;37243;49.814;8.652;2022-07-24T13:09:15;6.75;;;4.03;;
51179;SDS011;37243;49.814;8.652;2022-07-24T13:11:46;4.88;;;4.47;;
51179;SDS011;37243;49.814;8.652;2022-07-24T13:14:19;5.13;;;4.72;;
51179;SDS011;37243;49.814;8.652;2022-07-24T13:16:50;4.88;;;4.47;;
51179;SDS011;37243;49.814;8.652;2022-07-24T13:19:20;4.40;;;4.10;;
51179;SDS011;37243;49.814;8.652;2022-07-24T13:21:49;4.45;;;4.15;;
51179;SDS011;37243;49.814;8.652;2022-07-24T13:24:17;4.22;;;3.92;;
51179;SDS011;37243;49.814;8.652;2022-07-24T13:26:45;4.60;;;4.20;;
51179;SDS011;37243;49.814;8.652;2022-07-24T13:29:14;4.40;;;4.10;;
51179;SDS011;37243;49.814;8.652;2022-07-24T13:31:45;4.30;;;4.00;;
51179;SDS011;37243;49.814;8.652;2022-07-24T13:34:13;6.07;;;4.47;;
51179;SDS011;37243;49.814;8.652;2022-07-24T13:36:41;4.20;;;4.00;;
51179;SDS011;37243;49.814;8.652;2022-07-24T13:39:11;5.10;;;4.53;;
51179;SDS011;37243;49.814;8.652;2022-07-24T13:41:40;4.43;;;4.03;;
51179;SDS011;37243;49.814;8.652;2022-07-24T13:44:09;4.40;;;4.00;;
51179;SDS011;37243;49.814;8.652;2022-07-24T13:46:37;4.07;;;3.67;;
51179;SDS011;37243;49.814;8.652;2022-07-24T13:49:08;4.80;;;4.35;;
51179;SDS011;37243;49.814;8.652;2022-07-24T13:51:39;4.35;;;4.05;;
51179;SDS011;37243;49.814;8.652;2022-07-24T13:54:07;4.78;;;4.30;;
51179;SDS011;37243;49.814;8.652;2022-07-24T13:56:36;4.50;;;4.20;;
51179;SDS011;37243;49.814;8.652;2022-07-24T13:59:04;4.72;;;4.40;;
51179;SDS011;37243;49.814;8.652;2022-07-24T14:01:32;5.38;;;4.88;;
51179;SDS011;37243;49.814;8.652;2022-07-24T14:04:02;4.28;;;3.97;;
51179;SDS011;37243;49.814;8.652;2022-07-24T14:06:36;4.75;;;4.35;;
51179;SDS011;37243;49.814;8.652;2022-07-24T14:09:04;4.65;;;4.35;;
51179;SDS011;37243;49.814;8.652;2022-07-24T14:11:34;5.15;;;4.68;;
51179;SDS011;37243;49.814;8.652;2022-07-24T14:14:02;4.88;;;4.47;;
51179;SDS011;37243;49.814;8.652;2022-07-24T14:16:31;4.47;;;4.07;;
51179;SDS011;37243;49.814;8.652;2022-07-24T14:18:59;4.75;;;4.28;;
51179;SDS011;37243;49.814;8.652;2022-07-24T14:21:27;4.72;;;4.30;;
51179;SDS011;37243;49.814;8.652;2022-07-24T14:24:01;4.30;;;3.90;;
51179;SDS011;37243;49.814;8.652;2022-07-24T14:26:29;4.78;;;4.38;;
51179;SDS011;37243;49.814;8.652;2022-07-24T14:28:57;4.50;;;4.10;;
51179;SDS011;37243;49.814;8.652;2022-07-24T14:31:26;5.72;;;4.55;;
51179;SDS011;37243;49.814;8.652;2022-07-24T14:33:54;4.63;;;4.22;;
51179;SDS011;37243;49.814;8.652;2022-07-24T14:36:22;4.50;;;4.20;;
51179;SDS011;37243;49.814;8.652;2022-07-24T14:38:51;4.47;;;4.13;;
51179;SDS011;37243;49.814;8.652;2022-07-24T14:41:22;5.05;;;4.63;;
51179;SDS011;37243;49.814;8.652;2022-07-24T14:43:50;4.68;;;4.28;;
51179;SDS011;37243;49.814;8.652;2022-07-24T14:46:18;4.97;;;4.03;;
51179;SDS011;37243;49.814;8.652;2022-07-24T14:48:47;4.47;;;4.13;;
51179;SDS011;37243;49.814;8.652;2022-07-24T15:24:55;5.00;;;4.60;;
51179;SDS011;37243;49.814;8.652;2022-07-24T15:27:23;4.82;;;4.43;;
51179;SDS011;37243;49.814;8.652;2022-07-24T15:29:51;4.72;;;4.40;;
51179;SDS011;37243;49.814;8.652;2022-07-24T15:32:20;4.60;;;4.30;;
51179;SDS011;37243;49.814;8.652;2022-07-24T15:34:48;4.72;;;4.32;;
51179;SDS011;37243;49.814;8.652;2022-07-24T15:37:16;4.50;;;4.20;;
51179;SDS011;37243;49.814;8.652;2022-07-24T15:39:45;4.70;;;4.32;;
51179;SDS011;37243;49.814;8.652;2022-07-24T15:42:16;4.55;;;4.25;;
51179;SDS011;37243;49.814;8.652;2022-07-24T15:44:44;5.68;;;4.40;;
51179;SDS011;37243;49.814;8.652;2022-07-24T15:47:13;4.50;;;4.10;;
51179;SDS011;37243;49.814;8.652;2022-07-24T15:49:41;4.28;;;3.97;;
51179;SDS011;37243;49.814;8.652;2022-07-24T15:52:09;4.43;;;4.13;;
51179;SDS011;37243;49.814;8.652;2022-07-24T15:54:38;4.45;;;4.15;;
51179;SDS011;37243;49.814;8.652;2022-07-24T15:57:06;4.80;;;4.40;;
51179;SDS011;37243;49.814;8.652;2022-07-24T15:59:37;4.47;;;4.18;;
51179;SDS011;37243;49.814;8.652;2022-07-24T16:02:05;4.85;;;4.47;;
51179;SDS011;37243;49.814;8.652;2022-07-24T16:04:34;4.72;;;4.43;;
51179;SDS011;37243;49.814;8.652;2022-07-24T16:07:02;4.88;;;4.47;;
51179;SDS011;37243;49.814;8.652;2022-07-24T16:09:31;4.55;;;4.15;;
51179;SDS011;37243;49.814;8.652;2022-07-24T16:11:59;4.65;;;4.45;;
51179;SDS011;37243;49.814;8.652;2022-07-24T16:14:28;4.10;;;3.78;;
51179;SDS011;37243;49.814;8.652;2022-07-24T16:16:59;4.65;;;4.35;;
51179;SDS011;37243;49.814;8.652;2022-07-24T16:19:27;4.60;;;4.22;;